Voyageur Independent — CFN4292 — position and weather

sailwx.info

Track history (hours):
 
Tides and Currents Weather Stations Pressure Air Temp Water Temp Dewpoint Dewpoint Depression Visibility Wind Speed Wind Dir Waves Ship Positions

Voyageur Independent

Last reported at 2017-Sep-20 11:17 UTC. Time now 2017-Sep-21 15:53 UTC.
Position N 45°05' W 074°30'.

Length 191 m; draft 7.7 m.

Type: Cargo ship. MMSI: 316607241.

Date/timePositionNaut miles runAvg speedWind from/ knotsBaromVisibWave heightAir tempDewpointWater temp
2017-Sep-20 11:17N 45°05' W 074°30'4 8.1
2017-Sep-20 10:48N 45°08' W 074°26'3 9.1
2017-Sep-20 10:30N 45°09' W 074°23'4 8.9
2017-Sep-20 10:00N 45°12' W 074°18'4 9.0
2017-Sep-20 09:30N 45°14' W 074°12'4 8.6
2017-Sep-20 09:00N 45°13' W 074°06'4 7.8
2017-Sep-20 08:29N 45°14' W 074°01'4 8.6
2017-Sep-20 08:00N 45°17' W 073°56'1 2.9
2017-Sep-20 07:30N 45°18' W 073°56'1 1.5
2017-Sep-20 07:00N 45°19' W 073°55'0 0.3
2017-Sep-20 06:30N 45°19' W 073°55'1 2.1
2017-Sep-20 06:00N 45°20' W 073°54'4 7.8
2017-Sep-20 05:30N 45°22' W 073°50'4 8.4
2017-Sep-20 05:00N 45°24' W 073°45'3 6.7
2017-Sep-20 04:30N 45°25' W 073°40'3 5.5
2017-Sep-20 04:00N 45°24' W 073°36'1 2.9
2017-Sep-20 03:30N 45°24' W 073°34'0 0.3
2017-Sep-20 03:00N 45°24' W 073°34'1 2.8
2017-Sep-20 02:29N 45°25' W 073°32'3 5.6
2017-Sep-20 02:00N 45°27' W 073°30'3 2.2
2017-Sep-20 00:38N 45°30' W 073°31'29 0.7
2017-Sep-18 07:52N 45°56' W 073°13'1310.9
2017-Sep-18 06:39N 45°45' W 073°24'211.3
2017-Sep-18 06:27N 45°43' W 073°26'810.0
2017-Sep-18 05:37N 45°35' W 073°30'110.1
2017-Sep-18 05:30N 45°34' W 073°30'5 3.4
2017-Sep-18 04:08N 45°30' W 073°31'0 1.0
2017-Sep-18 03:59N 45°29' W 073°31'2 2.9
2017-Sep-18 03:27N 45°28' W 073°30'3 5.5
2017-Sep-18 02:59N 45°25' W 073°30'3 5.2
2017-Sep-18 02:30N 45°24' W 073°34'0 0.4
2017-Sep-18 02:00N 45°24' W 073°34'1 1.0
2017-Sep-18 01:30N 45°24' W 073°35'2 3.7
2017-Sep-18 00:59N 45°24' W 073°37'3 5.6
2017-Sep-18 00:30N 45°25' W 073°41'3 6.6
2017-Sep-18 00:00N 45°24' W 073°46'5 9.6
2017-Sep-17 23:29N 45°21' W 073°51'4 7.2
2017-Sep-17 23:00N 45°19' W 073°55'0 0.2
2017-Sep-17 22:29N 45°19' W 073°55'1 1.7
2017-Sep-17 22:00N 45°18' W 073°56'0 0.0
2017-Sep-17 21:29N 45°18' W 073°56'0 1.0
2017-Sep-17 21:00N 45°18' W 073°56'5 6.1
2017-Sep-17 20:08N 45°14' W 074°01'  
2017-Sep-14 04:46N 45°06' W 082°59'310.4
2017-Sep-14 04:28N 45°09' W 082°60'710.5
2017-Sep-14 03:48N 45°15' W 083°03'310.6
2017-Sep-14 03:30N 45°18' W 083°05'510.2
2017-Sep-14 03:00N 45°23' W 083°08'510.4
2017-Sep-14 02:30N 45°26' W 083°13'510.2
2017-Sep-14 02:00N 45°30' W 083°19'510.3
2017-Sep-14 01:30N 45°34' W 083°23'510.2
2017-Sep-14 01:00N 45°38' W 083°28'510.2
2017-Sep-14 00:30N 45°41' W 083°33'11 9.9
2017-Sep-13 23:27N 45°49' W 083°44'5 9.9
2017-Sep-13 22:55N 45°53' W 083°49'410.0
2017-Sep-13 22:30N 45°56' W 083°53'5 9.2
2017-Sep-13 21:56N 46°01' W 083°54'13 8.4
2017-Sep-13 20:22N 46°11' W 084°06'3 8.3
2017-Sep-13 20:00N 46°13' W 084°10'20 4.0
2017-Sep-13 15:00N 46°27' W 084°30'4 6.1
2017-Sep-13 14:24N 46°29' W 084°35'4 7.4
2017-Sep-13 13:51N 46°32' W 084°39'5 9.7
2017-Sep-13 13:20N 46°36' W 084°44'4 9.9
2017-Sep-13 12:57N 46°39' W 084°47'4 9.9
2017-Sep-13 12:30N 46°42' W 084°51'3410.0
2017-Sep-13 09:07N 47°02' W 085°31'410.3
2017-Sep-13 08:45N 47°03' W 085°36'  
Track history (hours):
 
Tides and Currents Weather Stations Pressure Air Temp Water Temp Dewpoint Dewpoint Depression Visibility Wind Speed Wind Dir Waves Ship Positions

Voyageur Independent

Last reported at 2017-Sep-20 11:17 UTC. Time now 2017-Sep-21 15:53 UTC.
Position N 45°05' W 074°30'.

Length 191 m; draft 7.7 m.

Type: Cargo ship. MMSI: 316607241.

Date/timePositionNaut miles runAvg speedWind from/ knotsBaromVisibWave heightAir tempDewpointWater temp
2017-Sep-20 11:17N 45°05' W 074°30'4 8.1
2017-Sep-20 10:48N 45°08' W 074°26'3 9.1
2017-Sep-20 10:30N 45°09' W 074°23'4 8.9
2017-Sep-20 10:00N 45°12' W 074°18'4 9.0
2017-Sep-20 09:30N 45°14' W 074°12'4 8.6
2017-Sep-20 09:00N 45°13' W 074°06'4 7.8
2017-Sep-20 08:29N 45°14' W 074°01'4 8.6
2017-Sep-20 08:00N 45°17' W 073°56'1 2.9
2017-Sep-20 07:30N 45°18' W 073°56'1 1.5
2017-Sep-20 07:00N 45°19' W 073°55'0 0.3
2017-Sep-20 06:30N 45°19' W 073°55'1 2.1
2017-Sep-20 06:00N 45°20' W 073°54'4 7.8
2017-Sep-20 05:30N 45°22' W 073°50'4 8.4
2017-Sep-20 05:00N 45°24' W 073°45'3 6.7
2017-Sep-20 04:30N 45°25' W 073°40'3 5.5
2017-Sep-20 04:00N 45°24' W 073°36'1 2.9
2017-Sep-20 03:30N 45°24' W 073°34'0 0.3
2017-Sep-20 03:00N 45°24' W 073°34'1 2.8
2017-Sep-20 02:29N 45°25' W 073°32'3 5.6
2017-Sep-20 02:00N 45°27' W 073°30'3 2.2
2017-Sep-20 00:38N 45°30' W 073°31'29 0.7
2017-Sep-18 07:52N 45°56' W 073°13'1310.9
2017-Sep-18 06:39N 45°45' W 073°24'211.3
2017-Sep-18 06:27N 45°43' W 073°26'810.0
2017-Sep-18 05:37N 45°35' W 073°30'110.1
2017-Sep-18 05:30N 45°34' W 073°30'5 3.4
2017-Sep-18 04:08N 45°30' W 073°31'0 1.0
2017-Sep-18 03:59N 45°29' W 073°31'2 2.9
2017-Sep-18 03:27N 45°28' W 073°30'3 5.5
2017-Sep-18 02:59N 45°25' W 073°30'3 5.2
2017-Sep-18 02:30N 45°24' W 073°34'0 0.4
2017-Sep-18 02:00N 45°24' W 073°34'1 1.0
2017-Sep-18 01:30N 45°24' W 073°35'2 3.7
2017-Sep-18 00:59N 45°24' W 073°37'3 5.6
2017-Sep-18 00:30N 45°25' W 073°41'3 6.6
2017-Sep-18 00:00N 45°24' W 073°46'5 9.6
2017-Sep-17 23:29N 45°21' W 073°51'4 7.2
2017-Sep-17 23:00N 45°19' W 073°55'0 0.2
2017-Sep-17 22:29N 45°19' W 073°55'1 1.7
2017-Sep-17 22:00N 45°18' W 073°56'0 0.0
2017-Sep-17 21:29N 45°18' W 073°56'0 1.0
2017-Sep-17 21:00N 45°18' W 073°56'5 6.1
2017-Sep-17 20:08N 45°14' W 074°01'  
2017-Sep-14 04:46N 45°06' W 082°59'310.4
2017-Sep-14 04:28N 45°09' W 082°60'710.5
2017-Sep-14 03:48N 45°15' W 083°03'310.6
2017-Sep-14 03:30N 45°18' W 083°05'510.2
2017-Sep-14 03:00N 45°23' W 083°08'510.4
2017-Sep-14 02:30N 45°26' W 083°13'510.2
2017-Sep-14 02:00N 45°30' W 083°19'510.3
2017-Sep-14 01:30N 45°34' W 083°23'510.2
2017-Sep-14 01:00N 45°38' W 083°28'510.2
2017-Sep-14 00:30N 45°41' W 083°33'11 9.9
2017-Sep-13 23:27N 45°49' W 083°44'5 9.9
2017-Sep-13 22:55N 45°53' W 083°49'410.0
2017-Sep-13 22:30N 45°56' W 083°53'5 9.2
2017-Sep-13 21:56N 46°01' W 083°54'13 8.4
2017-Sep-13 20:22N 46°11' W 084°06'3 8.3
2017-Sep-13 20:00N 46°13' W 084°10'20 4.0
2017-Sep-13 15:00N 46°27' W 084°30'4 6.1
2017-Sep-13 14:24N 46°29' W 084°35'4 7.4
2017-Sep-13 13:51N 46°32' W 084°39'5 9.7
2017-Sep-13 13:20N 46°36' W 084°44'4 9.9
2017-Sep-13 12:57N 46°39' W 084°47'4 9.9
2017-Sep-13 12:30N 46°42' W 084°51'3410.0
2017-Sep-13 09:07N 47°02' W 085°31'410.3
2017-Sep-13 08:45N 47°03' W 085°36'  

Dump ship's entire track history